createdAt,value
2022-12-29T00:04:15.277Z,3.57
2022-12-29T00:14:36.769Z,3.55
2022-12-29T00:25:01.943Z,3.48
2022-12-29T00:35:13.009Z,3.46
2022-12-29T00:45:18.880Z,3.48
2022-12-29T00:55:26.120Z,3.43
2022-12-29T01:05:33.106Z,3.30
2022-12-29T01:15:40.383Z,3.20
2022-12-29T01:25:47.429Z,3.20
2022-12-29T01:35:54.648Z,3.32
2022-12-29T01:46:01.907Z,3.42
2022-12-29T01:56:13.139Z,3.47
2022-12-29T02:06:20.732Z,3.49
2022-12-29T02:16:33.298Z,3.51
2022-12-29T02:26:57.003Z,3.59
2022-12-29T02:37:02.599Z,3.74
2022-12-29T02:47:13.625Z,3.84
2022-12-29T02:57:32.700Z,3.86
2022-12-29T03:07:40.532Z,3.83
2022-12-29T03:17:47.987Z,3.84
2022-12-29T03:27:58.190Z,3.88
2022-12-29T03:38:12.429Z,3.95
2022-12-29T03:48:19.483Z,3.94
2022-12-29T03:58:27.483Z,3.95
2022-12-29T04:08:34.488Z,3.92
2022-12-29T04:18:41.568Z,3.99
2022-12-29T04:28:48.614Z,3.97
2022-12-29T04:38:55.847Z,3.89
2022-12-29T04:49:09.108Z,3.79
2022-12-29T04:59:16.554Z,3.75
2022-12-29T05:09:25.112Z,3.69
2022-12-29T05:19:32.981Z,3.57
2022-12-29T05:29:40.727Z,3.46
2022-12-29T05:39:47.834Z,3.48
2022-12-29T05:49:54.920Z,3.61
2022-12-29T06:00:02.249Z,3.67
2022-12-29T06:10:09.888Z,3.72
2022-12-29T06:20:17.357Z,3.77
2022-12-29T06:30:24.643Z,3.87
2022-12-29T06:40:32.066Z,4.06
2022-12-29T06:50:38.394Z,4.17
2022-12-29T07:00:45.681Z,4.22
2022-12-29T07:10:53.188Z,4.26
2022-12-29T07:21:00.462Z,4.26
2022-12-29T07:31:08.450Z,4.36
2022-12-29T07:41:15.694Z,4.51
2022-12-29T07:51:22.815Z,4.64
2022-12-29T08:01:29.518Z,5.01
2022-12-29T08:11:37.964Z,5.41
2022-12-29T08:21:45.172Z,5.81
2022-12-29T08:31:52.333Z,6.36
2022-12-29T08:41:59.846Z,6.80
2022-12-29T08:52:07.860Z,7.17
2022-12-29T09:02:18.732Z,6.93
2022-12-29T09:12:34.463Z,6.57
2022-12-29T09:22:42.879Z,6.35
2022-12-29T09:32:54.946Z,6.25
2022-12-29T09:43:18.517Z,6.26
2022-12-29T09:53:27.645Z,6.25
2022-12-29T10:03:36.315Z,6.31
2022-12-29T10:13:43.442Z,6.54
2022-12-29T10:23:54.490Z,6.85
2022-12-29T10:34:08.079Z,7.12
2022-12-29T10:44:16.917Z,7.31
2022-12-29T10:54:25.037Z,7.31
2022-12-29T11:04:48.969Z,7.26
2022-12-29T11:15:20.923Z,7.38
2022-12-29T11:25:28.954Z,7.39
2022-12-29T11:35:34.672Z,7.32
2022-12-29T11:45:49.227Z,7.24
2022-12-29T11:55:55.221Z,7.29
2022-12-29T12:06:00.809Z,7.31
2022-12-29T12:16:11.050Z,7.36
2022-12-29T12:26:21.567Z,7.37
2022-12-29T12:36:56.190Z,7.30
2022-12-29T12:47:06.655Z,7.27
2022-12-29T12:57:13.819Z,7.29
2022-12-29T13:07:20.842Z,7.16
2022-12-29T13:17:26.840Z,7.02
2022-12-29T13:27:45.397Z,6.90
2022-12-29T13:37:56.688Z,6.83
2022-12-29T13:48:02.182Z,6.83
2022-12-29T13:58:14.235Z,6.80
2022-12-29T14:08:21.933Z,6.71
2022-12-29T14:18:31.281Z,6.65
2022-12-29T14:28:39.209Z,6.61
2022-12-29T14:38:49.050Z,6.62
2022-12-29T14:48:58.020Z,6.59
2022-12-29T14:59:05.955Z,6.62
2022-12-29T15:09:15.680Z,6.66
2022-12-29T15:19:25.379Z,6.72
2022-12-29T15:29:33.668Z,6.84
2022-12-29T15:39:39.768Z,6.83
2022-12-29T15:49:46.211Z,6.76
2022-12-29T15:59:55.186Z,6.70
2022-12-29T16:10:04.072Z,6.71
2022-12-29T16:20:21.434Z,6.80
2022-12-29T16:30:34.184Z,6.98
2022-12-29T16:40:42.824Z,7.02
2022-12-29T16:50:51.370Z,7.05
2022-12-29T17:01:00.350Z,7.05
2022-12-29T17:11:24.775Z,7.14
2022-12-29T17:21:32.191Z,7.15
2022-12-29T17:31:39.659Z,7.09
2022-12-29T17:41:48.833Z,6.92
2022-12-29T17:51:56.284Z,6.76
2022-12-29T18:02:03.909Z,6.64
2022-12-29T18:12:26.923Z,6.63
2022-12-29T18:22:34.735Z,6.58
2022-12-29T18:32:56.075Z,6.48
2022-12-29T18:43:04.096Z,6.37
2022-12-29T18:53:12.580Z,6.30
2022-12-29T19:03:21.461Z,6.30
2022-12-29T19:13:34.906Z,6.30
2022-12-29T19:23:41.759Z,6.26
2022-12-29T19:43:55.835Z,6.02
2022-12-29T19:54:03.204Z,6.03
2022-12-29T20:04:09.523Z,6.02
2022-12-29T20:14:17.248Z,5.92
2022-12-29T20:24:24.803Z,5.79
2022-12-29T20:34:32.251Z,5.69
2022-12-29T20:44:39.426Z,5.71
2022-12-29T20:54:46.518Z,5.75
2022-12-29T21:15:21.232Z,5.52
2022-12-29T21:25:29.443Z,5.50
2022-12-29T21:35:38.589Z,5.50
2022-12-29T21:45:49.493Z,5.40
2022-12-29T21:55:56.700Z,5.27
2022-12-29T22:06:21.540Z,5.13
2022-12-29T22:16:29.237Z,5.05
2022-12-29T22:26:36.100Z,5.09
2022-12-29T22:36:43.353Z,5.08
2022-12-29T22:46:50.484Z,4.97
2022-12-29T22:56:56.437Z,4.84
2022-12-29T23:07:03.873Z,4.78
2022-12-29T23:17:11.543Z,4.81
2022-12-29T23:27:18.815Z,4.78
2022-12-29T23:37:26.209Z,4.69
2022-12-29T23:47:33.558Z,4.58
2022-12-29T23:57:40.634Z,4.61
